Terminal Aerodrome Forecast
Issued by NWS Bismarck, ND

Home | Current Version | Previous Version | Text Only | Print | Product List | Glossary Off
Versions: 1 2 3 4 5 6 7 8 9 10 11 12 13 14 15 16 17 18 19

000
FTUS43 KBIS 232109 AAB
TAFBIS
TAF AMD
KBIS 232109Z 2321/2418 11009KT P6SM SCT045 BKN070
     FM240000 15009KT P6SM FEW045 SCT200
     FM241300 17006KT P6SM FEW250
     FM241600 20008KT P6SM FEW250=

USA.gov is the U.S. government's official web portal to all federal, state and local government web resources and services.